Time;durP1;ratioP1;P1;durP2;ratioP2;P2;SDS_P1;SDS_P2;PMS_P1;PMS_P2;Temp;Humidity;BMP_temperature;BMP_pressure;BME280_temperature;BME280_humidity;BME280_pressure;Samples;Min_cycle;Max_cycle;Signal;HPM_P1;HPM_P2
2021/10/04 00:00:33;;;;;;;;;;;;;;;;;;4986114;28;20450;-70
2021/10/04 00:02:58;;;;;;;;;;;;;;;;;;4990016;28;20320;-70
2021/10/04 00:05:24;;;;;;;;;;;;;;;;;;4997019;28;20277;-70
2021/10/04 00:07:49;;;;;;;;;;;;;;;;;;4981628;28;20251;-71
2021/10/04 00:10:14;;;;;;;;;;;;;;;;;;4991733;28;20290;-70
2021/10/04 00:12:40;;;;;;;;;;;;;;;;;;4984810;28;19918;-69
2021/10/04 00:15:05;;;;;;;;;;;;;;;;;;4992551;28;19913;-68
2021/10/04 00:17:30;;;;;;;;;;;;;;;;;;4998506;28;19925;-68
2021/10/04 00:19:55;;;;;;;;;;;;;;;;;;4992949;28;20024;-69
2021/10/04 00:22:21;;;;;;;;;;;;;;;;;;4992851;28;20318;-69
2021/10/04 00:24:46;;;;;;;;;;;;;;;;;;4999508;28;20394;-69
2021/10/04 00:27:11;;;;;;;;;;;;;;;;;;4981884;28;19918;-69
2021/10/04 00:29:36;;;;;;;;;;;;;;;;;;4997856;28;19917;-69
2021/10/04 00:32:01;;;;;;;;;;;;;;;;;;4991581;28;19935;-71
2021/10/04 00:34:27;;;;;;;;;;;;;;;;;;4991240;28;19924;-68
2021/10/04 00:36:52;;;;;;;;;;;;;;;;;;4998327;28;19932;-69
2021/10/04 00:39:17;;;;;;;;;;;;;;;;;;4982210;28;19921;-69
2021/10/04 00:41:43;;;;;;;;;;;;;;;;;;5001711;28;19928;-68
2021/10/04 00:44:08;;;;;;;;;;;;;;;;;;4994485;28;19917;-68
2021/10/04 00:46:33;;;;;;;;;;;;;;;;;;4994646;28;19953;-69
2021/10/04 00:48:59;;;;;;;;;;;;;;;;;;4998428;28;19918;-70
2021/10/04 00:51:24;;;;;;;;;;;;;;;;;;4976917;28;19917;-71
2021/10/04 00:53:49;;;;;;;;;;;;;;;;;;5001471;28;19924;-70
2021/10/04 00:56:14;;;;;;;;;;;;;;;;;;4981953;28;19924;-70
2021/10/04 00:58:39;;;;;;;;;;;;;;;;;;4990439;28;19925;-70
2021/10/04 01:01:05;;;;;;;;;;;;;;;;;;4991321;28;19918;-70
2021/10/04 01:03:30;;;;;;;;;;;;;;;;;;4993791;28;19927;-69
2021/10/04 01:05:57;;;;;;;;;;;;;;;;;;4997257;28;19918;-69
2021/10/04 01:08:22;;;;;;;;;;;;;;;;;;4992114;28;19928;-70
2021/10/04 01:10:48;;;;;;;;;;;;;;;;;;4990885;28;19917;-71
2021/10/04 01:13:13;;;;;;;;;;;;;;;;;;4999768;28;20371;-70
2021/10/04 01:15:38;;;;;;;;;;;;;;;;;;4989138;28;19913;-70
2021/10/04 01:18:06;;;;;;;;;;;;;;;;;;4997269;28;20309;-70
2021/10/04 01:20:31;;;;;;;;;;;;;;;;;;4992183;28;19918;-70
2021/10/04 01:22:56;;;;;;;;;;;;;;;;;;4991763;28;20011;-69
2021/10/04 01:25:22;;;;;;;;;;;;;;;;;;4993144;28;20326;-69
2021/10/04 01:27:49;;;;;;;;;;;;;;;;;;4960058;28;20369;-69
2021/10/04 01:30:15;;;;;;;;;;;;;;;;;;4987013;28;20319;-70
2021/10/04 01:32:40;;;;;;;;;;;;;;;;;;4993467;28;20430;-69
2021/10/04 01:35:05;;;;;;;;;;;;;;;;;;4990428;28;20390;-69
2021/10/04 01:37:30;;;;;;;;;;;;;;;;;;5000027;28;20290;-70
2021/10/04 01:39:55;;;;;;;;;;;;;;;;;;4990095;28;20271;-69
2021/10/04 01:42:23;;;;;;;;;;;;;;;;;;5003299;28;19918;-69
2021/10/04 01:44:51;;;;;;;;;;;;;;;;;;4990451;28;19932;-70
2021/10/04 01:47:16;;;;;;;;;;;;;;;;;;4991983;28;19917;-69
2021/10/04 01:49:43;;;;;;;;;;;;;;;;;;4997560;28;19917;-70
2021/10/04 01:52:09;;;;;;;;;;;;;;;;;;4992652;28;19918;-68
2021/10/04 01:54:34;;;;;;;;;;;;;;;;;;4993471;28;19920;-69
2021/10/04 01:56:59;;;;;;;;;;;;;;;;;;4992081;28;19992;-69
2021/10/04 01:59:24;;;;;;;;;;;;;;;;;;4989142;28;20352;-69
2021/10/04 02:01:50;;;;;;;;;;;;;;;;;;4992560;28;20327;-69
2021/10/04 02:04:15;;;;;;;;;;;;;;;;;;4988534;28;19925;-70
2021/10/04 02:06:42;;;;;;;;;;;;;;;;;;4995365;28;19925;-69
2021/10/04 02:09:08;;;;;;;;;;;;;;;;;;4966181;28;19913;-69
2021/10/04 02:11:33;;;;;;;;;;;;;;;;;;4976694;28;19918;-69
2021/10/04 02:13:58;;;;;;;;;;;;;;;;;;4986535;28;19968;-70
2021/10/04 02:16:23;;;;;;;;;;;;;;;;;;4989870;28;19956;-69
2021/10/04 02:18:48;;;;;;;;;;;;;;;;;;4995041;28;19969;-71
2021/10/04 02:21:14;;;;;;;;;;;;;;;;;;4992255;28;19957;-71
2021/10/04 02:23:39;;;;;;;;;;;;;;;;;;4989694;28;19972;-70
2021/10/04 02:26:04;;;;;;;;;;;;;;;;;;4988672;28;19924;-69
2021/10/04 02:28:29;;;;;;;;;;;;;;;;;;4989631;28;19924;-70
2021/10/04 02:30:56;;;;;;;;;;;;;;;;;;4984072;28;20012;-70
2021/10/04 02:33:21;;;;;;;;;;;;;;;;;;4984051;28;20000;-70
2021/10/04 02:35:49;;;;;;;;;;;;;;;;;;4981144;28;19917;-69
2021/10/04 02:38:14;;;;;;;;;;;;;;;;;;4986781;28;19922;-70
2021/10/04 02:40:40;;;;;;;;;;;;;;;;;;4994029;28;19918;-70
2021/10/04 02:43:05;;;;;;;;;;;;;;;;;;4990407;28;19918;-71
2021/10/04 02:45:30;;;;;;;;;;;;;;;;;;4996021;28;19925;-70
2021/10/04 02:47:55;;;;;;;;;;;;;;;;;;4989102;28;20085;-70
2021/10/04 02:50:20;;;;;;;;;;;;;;;;;;4994104;28;19936;-71
2021/10/04 02:52:46;;;;;;;;;;;;;;;;;;4997041;28;20045;-70
2021/10/04 02:55:11;;;;;;;;;;;;;;;;;;4979973;28;19917;-71
2021/10/04 02:57:36;;;;;;;;;;;;;;;;;;4994754;28;20294;-70
2021/10/04 03:00:01;;;;;;;;;;;;;;;;;;4980122;28;20398;-70
2021/10/04 03:02:27;;;;;;;;;;;;;;;;;;4983260;28;19976;-71
2021/10/04 03:04:52;;;;;;;;;;;;;;;;;;4965968;28;20345;-71
2021/10/04 03:07:17;;;;;;;;;;;;;;;;;;4952899;28;20265;-70
2021/10/04 03:09:44;;;;;;;;;;;;;;;;;;4975853;28;19922;-69
2021/10/04 03:12:10;;;;;;;;;;;;;;;;;;4972450;28;20057;-72
2021/10/04 03:14:35;;;;;;;;;;;;;;;;;;4982600;28;20389;-70
2021/10/04 03:17:00;;;;;;;;;;;;;;;;;;4970793;28;20350;-69
2021/10/04 03:19:25;;;;;;;;;;;;;;;;;;4972652;28;19965;-70
2021/10/04 03:21:51;;;;;;;;;;;;;;;;;;4980018;28;19910;-69
2021/10/04 03:24:16;;;;;;;;;;;;;;;;;;4979206;28;20017;-71
2021/10/04 03:26:41;;;;;;;;;;;;;;;;;;4979609;28;19918;-71
2021/10/04 03:29:09;;;;;;;;;;;;;;;;;;4994424;28;19918;-70
2021/10/04 03:31:34;;;;;;;;;;;;;;;;;;4976580;28;19917;-70
2021/10/04 03:33:59;;;;;;;;;;;;;;;;;;4980446;28;19918;-70
2021/10/04 03:36:24;;;;;;;;;;;;;;;;;;4973703;28;19980;-70
2021/10/04 03:38:50;;;;;;;;;;;;;;;;;;4979812;28;20012;-70
2021/10/04 03:41:18;;;;;;;;;;;;;;;;;;4976507;28;19918;-70
2021/10/04 03:43:45;;;;;;;;;;;;;;;;;;4975785;28;19950;-70
2021/10/04 03:46:10;;;;;;;;;;;;;;;;;;4982193;28;20327;-71
2021/10/04 03:48:36;;;;;;;;;;;;;;;;;;4978401;28;20352;-71
2021/10/04 03:51:01;;;;;;;;;;;;;;;;;;4979203;28;20295;-69
2021/10/04 03:53:26;;;;;;;;;;;;;;;;;;4955653;28;19918;-71
2021/10/04 03:55:51;;;;;;;;;;;;;;;;;;4974197;28;19926;-70
2021/10/04 03:58:17;;;;;;;;;;;;;;;;;;4978465;28;20012;-71
2021/10/04 04:00:42;;;;;;;;;;;;;;;;;;4972323;28;20004;-70
2021/10/04 04:03:07;;;;;;;;;;;;;;;;;;4982634;28;20406;-69
2021/10/04 04:05:33;;;;;;;;;;;;;;;;;;4973790;28;20371;-70
2021/10/04 04:07:58;;;;;;;;;;;;;;;;;;4973525;28;19924;-71
2021/10/04 04:10:23;;;;;;;;;;;;;;;;;;4961097;28;20426;-70
2021/10/04 04:12:48;;;;;;;;;;;;;;;;;;4975659;28;20381;-70
2021/10/04 04:15:14;;;;;;;;;;;;;;;;;;4983339;28;20379;-70
2021/10/04 04:17:39;;;;;;;;;;;;;;;;;;4974870;28;20279;-70
2021/10/04 04:20:04;;;;;;;;;;;;;;;;;;4973610;28;19922;-70
2021/10/04 04:22:29;;;;;;;;;;;;;;;;;;4984210;28;20300;-70
2021/10/04 04:24:56;;;;;;;;;;;;;;;;;;4979097;28;19929;-71
2021/10/04 04:27:21;;;;;;;;;;;;;;;;;;4980003;28;19994;-72
2021/10/04 04:29:46;;;;;;;;;;;;;;;;;;4971976;28;19950;-70
2021/10/04 04:32:11;;;;;;;;;;;;;;;;;;4971732;28;21352;-70
2021/10/04 04:34:36;;;;;;;;;;;;;;;;;;4977215;28;19925;-70
2021/10/04 04:37:02;;;;;;;;;;;;;;;;;;4974746;28;19926;-70
2021/10/04 04:39:27;;;;;;;;;;;;;;;;;;4981491;28;19922;-70
2021/10/04 04:41:52;;;;;;;;;;;;;;;;;;4976246;28;19922;-70
2021/10/04 04:44:17;;;;;;;;;;;;;;;;;;4978888;28;19925;-70
2021/10/04 04:46:45;;;;;;;;;;;;;;;;;;4978593;28;19918;-70
2021/10/04 04:49:10;;;;;;;;;;;;;;;;;;4975257;28;19925;-70
2021/10/04 04:51:36;;;;;;;;;;;;;;;;;;4978409;28;20335;-70
2021/10/04 04:54:01;;;;;;;;;;;;;;;;;;4979178;28;20420;-70
2021/10/04 04:56:27;;;;;;;;;;;;;;;;;;4995190;28;20351;-70
2021/10/04 04:58:52;;;;;;;;;;;;;;;;;;4985236;28;19929;-69
2021/10/04 05:01:17;;;;;;;;;;;;;;;;;;4973338;28;19917;-72
2021/10/04 05:03:42;;;;;;;;;;;;;;;;;;4999132;28;19944;-70
2021/10/04 05:06:07;;;;;;;;;;;;;;;;;;4989543;28;19917;-71
2021/10/04 05:08:33;;;;;;;;;;;;;;;;;;4991293;28;19928;-70
2021/10/04 05:10:58;;;;;;;;;;;;;;;;;;4979631;28;19917;-70
2021/10/04 05:13:23;;;;;;;;;;;;;;;;;;4982619;28;19921;-70
2021/10/04 05:15:48;;;;;;;;;;;;;;;;;;4987874;28;19918;-71
2021/10/04 05:18:16;;;;;;;;;;;;;;;;;;4980532;28;20054;-70
2021/10/04 05:20:41;;;;;;;;;;;;;;;;;;4993581;28;19918;-70
2021/10/04 05:23:06;;;;;;;;;;;;;;;;;;4995402;28;19963;-69
2021/10/04 05:25:32;;;;;;;;;;;;;;;;;;4992707;28;19918;-70
2021/10/04 05:27:57;;;;;;;;;;;;;;;;;;4997078;28;19940;-71
2021/10/04 05:30:22;;;;;;;;;;;;;;;;;;4990000;28;20399;-70
2021/10/04 05:32:51;;;;;;;;;;;;;;;;;;4992420;28;19918;-70
2021/10/04 05:35:16;;;;;;;;;;;;;;;;;;4983914;28;19913;-71
2021/10/04 05:37:41;;;;;;;;;;;;;;;;;;4992480;28;20473;-70
2021/10/04 05:40:09;;;;;;;;;;;;;;;;;;4997978;28;19922;-70
2021/10/04 05:42:34;;;;;;;;;;;;;;;;;;4959549;28;19918;-72
2021/10/04 05:44:59;;;;;;;;;;;;;;;;;;4989851;28;19918;-70
2021/10/04 05:47:24;;;;;;;;;;;;;;;;;;4987685;28;19964;-71
2021/10/04 05:49:50;;;;;;;;;;;;;;;;;;4998158;28;19917;-69
2021/10/04 05:52:15;;;;;;;;;;;;;;;;;;4993807;28;19964;-70
2021/10/04 05:54:43;;;;;;;;;;;;;;;;;;4978992;28;19918;-70
2021/10/04 05:57:08;;;;;;;;;;;;;;;;;;4989638;28;19926;-70
2021/10/04 05:59:33;;;;;;;;;;;;;;;;;;4998388;28;20608;-70
2021/10/04 06:01:58;;;;;;;;;;;;;;;;;;4993463;28;20020;-70
2021/10/04 06:04:24;;;;;;;;;;;;;;;;;;4987195;28;21024;-72
2021/10/04 06:06:49;;;;;;;;;;;;;;;;;;4990525;28;20383;-68
2021/10/04 06:09:16;;;;;;;;;;;;;;;;;;4971383;28;20117;-68
2021/10/04 06:11:41;;;;;;;;;;;;;;;;;;4978079;28;19925;-68
2021/10/04 06:14:06;;;;;;;;;;;;;;;;;;4995307;28;20052;-67
2021/10/04 06:16:32;;;;;;;;;;;;;;;;;;4982962;28;20410;-68
2021/10/04 06:18:57;;;;;;;;;;;;;;;;;;4979201;28;20012;-67
2021/10/04 06:21:24;;;;;;;;;;;;;;;;;;4989240;28;19922;-68
2021/10/04 06:23:50;;;;;;;;;;;;;;;;;;4998012;28;19917;-71
2021/10/04 06:26:15;;;;;;;;;;;;;;;;;;4989678;28;19917;-68
2021/10/04 06:28:40;;;;;;;;;;;;;;;;;;4989545;28;19960;-70
2021/10/04 06:31:05;;;;;;;;;;;;;;;;;;4988846;28;20390;-69
2021/10/04 06:33:30;;;;;;;;;;;;;;;;;;4977759;28;19962;-69
2021/10/04 06:35:56;;;;;;;;;;;;;;;;;;4994023;28;20008;-69
2021/10/04 06:38:21;;;;;;;;;;;;;;;;;;4986705;28;19925;-69
2021/10/04 06:40:46;;;;;;;;;;;;;;;;;;4983376;28;19917;-68
2021/10/04 06:43:11;;;;;;;;;;;;;;;;;;4988589;28;19929;-69
2021/10/04 06:45:37;;;;;;;;;;;;;;;;;;4978035;28;20008;-69
2021/10/04 06:48:02;;;;;;;;;;;;;;;;;;4995166;28;19940;-69
2021/10/04 06:50:27;;;;;;;;;;;;;;;;;;4992682;28;19988;-69
2021/10/04 06:52:52;;;;;;;;;;;;;;;;;;4994767;28;19917;-69
2021/10/04 06:55:18;;;;;;;;;;;;;;;;;;4975421;28;19921;-69
2021/10/04 06:57:43;;;;;;;;;;;;;;;;;;4973350;28;19925;-69
2021/10/04 07:00:08;;;;;;;;;;;;;;;;;;4995810;28;19918;-69
2021/10/04 07:02:33;;;;;;;;;;;;;;;;;;4974606;28;19972;-69
2021/10/04 07:04:59;;;;;;;;;;;;;;;;;;4972198;28;19925;-69
2021/10/04 07:07:25;;;;;;;;;;;;;;;;;;4970124;28;19918;-69
2021/10/04 07:09:50;;;;;;;;;;;;;;;;;;4968020;28;19918;-68
2021/10/04 07:12:15;;;;;;;;;;;;;;;;;;4974711;28;19914;-69
2021/10/04 07:14:40;;;;;;;;;;;;;;;;;;4967970;28;20335;-69
2021/10/04 07:17:06;;;;;;;;;;;;;;;;;;4979679;28;19971;-69
2021/10/04 07:19:31;;;;;;;;;;;;;;;;;;4940910;28;19977;-69
2021/10/04 07:21:56;;;;;;;;;;;;;;;;;;4961328;28;19917;-69
2021/10/04 07:24:21;;;;;;;;;;;;;;;;;;4971492;28;20399;-71
2021/10/04 07:26:49;;;;;;;;;;;;;;;;;;4926905;28;20267;-69
2021/10/04 07:29:15;;;;;;;;;;;;;;;;;;4959179;28;19922;-68
2021/10/04 07:31:40;;;;;;;;;;;;;;;;;;4934108;28;19961;-69
2021/10/04 07:34:06;;;;;;;;;;;;;;;;;;4937450;28;20061;-68
2021/10/04 07:36:31;;;;;;;;;;;;;;;;;;4950472;28;20388;-68
2021/10/04 07:38:56;;;;;;;;;;;;;;;;;;4937547;28;19932;-69
2021/10/04 07:41:21;;;;;;;;;;;;;;;;;;4963757;28;20133;-68
2021/10/04 07:43:47;;;;;;;;;;;;;;;;;;4949263;28;19918;-69
2021/10/04 07:46:12;;;;;;;;;;;;;;;;;;4940071;28;19921;-69
2021/10/04 07:48:38;;;;;;;;;;;;;;;;;;4974843;28;19918;-69
2021/10/04 07:51:03;;;;;;;;;;;;;;;;;;4957133;28;19940;-69
2021/10/04 07:53:28;;;;;;;;;;;;;;;;;;4954494;28;19960;-69
2021/10/04 07:55:54;;;;;;;;;;;;;;;;;;4946566;28;19921;-69
2021/10/04 07:58:19;;;;;;;;;;;;;;;;;;4936411;28;19930;-69
2021/10/04 08:00:44;;;;;;;;;;;;;;;;;;4940816;28;20291;-68
2021/10/04 08:03:09;;;;;;;;;;;;;;;;;;4946536;28;20391;-69
2021/10/04 08:05:34;;;;;;;;;;;;;;;;;;4978214;28;19925;-69
2021/10/04 08:08:00;;;;;;;;;;;;;;;;;;4969783;28;19917;-69
2021/10/04 08:10:25;;;;;;;;;;;;;;;;;;4956324;28;19928;-69
2021/10/04 08:12:51;;;;;;;;;;;;;;;;;;4964145;28;20881;-69
2021/10/04 08:15:19;;;;;;;;;;;;;;;;;;4933807;28;20483;-68
2021/10/04 08:17:45;;;;;;;;;;;;;;;;;;4951328;28;19926;-68
2021/10/04 08:20:10;;;;;;;;;;;;;;;;;;4964143;28;20379;-69
2021/10/04 08:22:35;;;;;;;;;;;;;;;;;;4981510;28;19925;-69
2021/10/04 08:25:03;;;;;;;;;;;;;;;;;;4971084;28;19925;-69
2021/10/04 08:27:32;;;;;;;;;;;;;;;;;;4956433;28;20407;-69
2021/10/04 08:29:57;;;;;;;;;;;;;;;;;;4954783;28;20028;-69
2021/10/04 08:32:23;;;;;;;;;;;;;;;;;;4970029;28;19918;-69
2021/10/04 08:34:48;;;;;;;;;;;;;;;;;;4964460;28;19964;-69
2021/10/04 08:37:13;;;;;;;;;;;;;;;;;;4944513;28;20530;-70
2021/10/04 08:39:38;;;;;;;;;;;;;;;;;;4950814;28;20263;-69
2021/10/04 08:42:04;;;;;;;;;;;;;;;;;;4971765;28;22042;-70
2021/10/04 08:44:29;;;;;;;;;;;;;;;;;;4974256;28;20441;-69
2021/10/04 08:46:54;;;;;;;;;;;;;;;;;;4952418;28;20016;-69
2021/10/04 08:49:19;;;;;;;;;;;;;;;;;;4959000;28;20241;-69
2021/10/04 08:51:44;;;;;;;;;;;;;;;;;;4961215;28;20523;-69
2021/10/04 08:54:10;;;;;;;;;;;;;;;;;;4978012;28;19956;-70
2021/10/04 08:56:35;;;;;;;;;;;;;;;;;;4962733;28;20009;-70
2021/10/04 08:59:00;;;;;;;;;;;;;;;;;;4961442;28;19922;-71
2021/10/04 09:01:26;;;;;;;;;;;;;;;;;;4942215;28;20064;-71
2021/10/04 09:03:51;;;;;;;;;;;;;;;;;;4952310;28;19926;-71
2021/10/04 09:06:16;;;;;;;;;;;;;;;;;;4964042;28;19917;-70
2021/10/04 09:08:41;;;;;;;;;;;;;;;;;;4955422;28;19924;-70
2021/10/04 09:11:07;;;;;;;;;;;;;;;;;;4959654;28;19929;-71
2021/10/04 09:13:35;;;;;;;;;;;;;;;;;;4957936;28;19917;-71
2021/10/04 09:16:00;;;;;;;;;;;;;;;;;;4929436;28;19921;-70
2021/10/04 09:18:26;;;;;;;;;;;;;;;;;;4943890;28;19936;-70
2021/10/04 09:20:52;;;;;;;;;;;;;;;;;;4946549;28;20675;-70
2021/10/04 09:23:17;;;;;;;;;;;;;;;;;;4952891;28;19922;-70
2021/10/04 09:25:42;;;;;;;;;;;;;;;;;;4958329;28;19948;-71
2021/10/04 09:28:07;;;;;;;;;;;;;;;;;;4956069;28;19999;-71
2021/10/04 09:30:33;;;;;;;;;;;;;;;;;;4965187;28;20506;-71
2021/10/04 09:32:58;;;;;;;;;;;;;;;;;;4967156;28;20329;-70
2021/10/04 09:35:24;;;;;;;;;;;;;;;;;;4943683;28;19929;-70
2021/10/04 09:37:49;;;;;;;;;;;;;;;;;;4956842;28;19926;-71
2021/10/04 09:40:14;;;;;;;;;;;;;;;;;;4955118;28;19926;-70
2021/10/04 09:42:39;;;;;;;;;;;;;;;;;;4954292;28;19933;-70
2021/10/04 09:45:05;;;;;;;;;;;;;;;;;;4957886;28;20460;-70
2021/10/04 09:47:30;;;;;;;;;;;;;;;;;;4955384;28;20248;-70
2021/10/04 09:49:55;;;;;;;;;;;;;;;;;;4961087;28;19930;-70
2021/10/04 09:52:20;;;;;;;;;;;;;;;;;;4973862;28;19999;-70
2021/10/04 09:54:46;;;;;;;;;;;;;;;;;;4977765;28;19938;-70
2021/10/04 09:57:11;;;;;;;;;;;;;;;;;;4995446;28;19926;-70
2021/10/04 09:59:36;;;;;;;;;;;;;;;;;;4954411;28;19925;-71
2021/10/04 10:02:01;;;;;;;;;;;;;;;;;;4986165;28;19921;-69
2021/10/04 10:04:26;;;;;;;;;;;;;;;;;;4986495;28;19922;-71
2021/10/04 10:06:52;;;;;;;;;;;;;;;;;;4986329;28;19925;-70
2021/10/04 10:09:17;;;;;;;;;;;;;;;;;;4993247;28;19921;-70
2021/10/04 10:11:42;;;;;;;;;;;;;;;;;;4987797;28;19972;-71
2021/10/04 10:14:07;;;;;;;;;;;;;;;;;;4996810;28;20099;-71
2021/10/04 10:16:32;;;;;;;;;;;;;;;;;;4988283;28;19930;-72
2021/10/04 10:18:58;;;;;;;;;;;;;;;;;;4974045;28;19986;-69
2021/10/04 10:21:23;;;;;;;;;;;;;;;;;;4993005;28;20371;-71
2021/10/04 10:23:50;;;;;;;;;;;;;;;;;;4977886;28;19953;-71
2021/10/04 10:26:15;;;;;;;;;;;;;;;;;;4977771;28;20028;-71
2021/10/04 10:28:41;;;;;;;;;;;;;;;;;;4959994;28;19921;-70
2021/10/04 10:31:06;;;;;;;;;;;;;;;;;;4987417;28;19924;-71
2021/10/04 10:33:31;;;;;;;;;;;;;;;;;;4993631;28;19918;-71
2021/10/04 10:35:57;;;;;;;;;;;;;;;;;;4988299;28;19917;-69
2021/10/04 10:38:22;;;;;;;;;;;;;;;;;;4990886;28;19921;-72
2021/10/04 10:40:47;;;;;;;;;;;;;;;;;;4991355;28;19922;-70
2021/10/04 10:43:13;;;;;;;;;;;;;;;;;;4988398;28;20364;-70
2021/10/04 10:45:38;;;;;;;;;;;;;;;;;;4995594;28;19917;-69
2021/10/04 10:48:04;;;;;;;;;;;;;;;;;;4976528;28;20028;-70
2021/10/04 10:50:29;;;;;;;;;;;;;;;;;;4979825;28;21231;-69
2021/10/04 10:52:54;;;;;;;;;;;;;;;;;;4989026;28;19925;-70
2021/10/04 10:55:21;;;;;;;;;;;;;;;;;;4990261;28;19928;-70
2021/10/04 10:57:47;;;;;;;;;;;;;;;;;;4994761;28;19944;-70
2021/10/04 11:00:12;;;;;;;;;;;;;;;;;;4975990;28;19921;-71
2021/10/04 11:02:37;;;;;;;;;;;;;;;;;;4974718;28;19922;-70
2021/10/04 11:05:02;;;;;;;;;;;;;;;;;;4968581;28;20295;-70
2021/10/04 11:07:27;;;;;;;;;;;;;;;;;;4966941;28;21024;-70
2021/10/04 11:09:53;;;;;;;;;;;;;;;;;;4975754;28;19939;-70
2021/10/04 11:12:18;;;;;;;;;;;;;;;;;;4969288;28;20335;-70
2021/10/04 11:14:43;;;;;;;;;;;;;;;;;;4973870;28;20333;-71
2021/10/04 11:17:08;;;;;;;;;;;;;;;;;;4973244;28;20410;-70
2021/10/04 11:19:35;;;;;;;;;;;;;;;;;;4969088;28;20360;-71
2021/10/04 11:22:01;;;;;;;;;;;;;;;;;;4973456;28;20368;-71
2021/10/04 11:24:26;;;;;;;;;;;;;;;;;;4974710;28;19918;-71
2021/10/04 11:26:51;;;;;;;;;;;;;;;;;;4975869;28;19918;-70
2021/10/04 11:29:17;;;;;;;;;;;;;;;;;;4968410;28;19922;-70
2021/10/04 11:31:45;;;;;;;;;;;;;;;;;;4987440;28;19925;-70
2021/10/04 11:34:10;;;;;;;;;;;;;;;;;;4976992;28;19988;-70
2021/10/04 11:36:38;;;;;;;;;;;;;;;;;;4970602;28;20000;-70
2021/10/04 11:39:03;;;;;;;;;;;;;;;;;;4976820;28;20338;-70
2021/10/04 11:41:31;;;;;;;;;;;;;;;;;;4970570;28;19918;-70
2021/10/04 11:43:56;;;;;;;;;;;;;;;;;;4971909;28;19925;-70
2021/10/04 11:46:21;;;;;;;;;;;;;;;;;;4980607;28;20283;-69
2021/10/04 11:48:46;;;;;;;;;;;;;;;;;;4973161;28;19926;-70
2021/10/04 11:51:16;;;;;;;;;;;;;;;;;;4978332;28;19918;-70
2021/10/04 11:53:41;;;;;;;;;;;;;;;;;;4972073;28;19920;-70
2021/10/04 11:56:06;;;;;;;;;;;;;;;;;;4977550;28;20388;-70
2021/10/04 11:58:31;;;;;;;;;;;;;;;;;;4977657;28;20012;-70
2021/10/04 12:00:57;;;;;;;;;;;;;;;;;;4971187;28;19922;-70
2021/10/04 12:03:22;;;;;;;;;;;;;;;;;;4995476;28;19926;-70
2021/10/04 12:05:47;;;;;;;;;;;;;;;;;;4989583;28;20052;-70
2021/10/04 12:08:14;;;;;;;;;;;;;;;;;;4957893;28;19918;-70
2021/10/04 12:10:39;;;;;;;;;;;;;;;;;;4997300;28;19925;-70
2021/10/04 12:13:04;;;;;;;;;;;;;;;;;;4990746;28;19921;-70
2021/10/04 12:15:29;;;;;;;;;;;;;;;;;;4993967;28;19932;-70
2021/10/04 12:17:55;;;;;;;;;;;;;;;;;;4986565;28;20295;-70
2021/10/04 12:20:20;;;;;;;;;;;;;;;;;;4973754;28;20386;-68
2021/10/04 12:22:48;;;;;;;;;;;;;;;;;;4997468;28;20338;-70
2021/10/04 12:25:13;;;;;;;;;;;;;;;;;;4989177;28;19925;-70
2021/10/04 12:27:38;;;;;;;;;;;;;;;;;;4996628;28;19917;-69
2021/10/04 12:30:05;;;;;;;;;;;;;;;;;;4991299;28;20036;-70
2021/10/04 12:32:42;;;;;;;;;;;;;;;;;;4990270;28;19920;-70
2021/10/04 12:35:07;;;;;;;;;;;;;;;;;;4985008;28;19980;-70
2021/10/04 12:37:32;;;;;;;;;;;;;;;;;;4991985;28;20314;-70
2021/10/04 12:39:58;;;;;;;;;;;;;;;;;;4992573;28;19976;-71
2021/10/04 12:42:23;;;;;;;;;;;;;;;;;;4985342;28;20405;-71
2021/10/04 12:44:49;;;;;;;;;;;;;;;;;;4990756;28;19924;-70
2021/10/04 12:47:14;;;;;;;;;;;;;;;;;;4996486;28;19975;-70
2021/10/04 12:49:39;;;;;;;;;;;;;;;;;;4979460;28;20330;-70
2021/10/04 12:52:04;;;;;;;;;;;;;;;;;;4989967;28;20547;-70
2021/10/04 12:54:29;;;;;;;;;;;;;;;;;;4996297;28;20274;-69
2021/10/04 12:56:55;;;;;;;;;;;;;;;;;;4990561;28;19926;-69
2021/10/04 12:59:20;;;;;;;;;;;;;;;;;;4994974;28;20156;-69
2021/10/04 13:01:45;;;;;;;;;;;;;;;;;;4980925;28;20371;-69
2021/10/04 13:04:11;;;;;;;;;;;;;;;;;;4982909;28;20627;-70
2021/10/04 13:06:36;;;;;;;;;;;;;;;;;;4999249;28;19936;-69
2021/10/04 13:12:29;;;;;;;;;;;;;;;;;;4992468;28;19924;-69
2021/10/04 13:14:55;;;;;;;;;;;;;;;;;;4999634;28;20464;-69
2021/10/04 13:17:20;;;;;;;;;;;;;;;;;;4974918;28;19922;-68
2021/10/04 13:19:48;;;;;;;;;;;;;;;;;;4995691;28;19936;-69
2021/10/04 13:22:13;;;;;;;;;;;;;;;;;;4976386;28;20542;-68
2021/10/04 13:24:39;;;;;;;;;;;;;;;;;;4989192;28;19963;-68
2021/10/04 13:27:04;;;;;;;;;;;;;;;;;;4996670;28;20158;-69
2021/10/04 13:29:29;;;;;;;;;;;;;;;;;;4991575;28;19917;-69
2021/10/04 13:31:54;;;;;;;;;;;;;;;;;;4997932;28;19921;-69
2021/10/04 13:34:19;;;;;;;;;;;;;;;;;;4987524;28;19918;-69
2021/10/04 13:36:45;;;;;;;;;;;;;;;;;;4991841;28;20385;-69
2021/10/04 13:39:14;;;;;;;;;;;;;;;;;;4980628;28;19921;-69
2021/10/04 13:41:39;;;;;;;;;;;;;;;;;;4991831;28;19921;-69
2021/10/04 13:44:05;;;;;;;;;;;;;;;;;;4995433;28;20386;-69
2021/10/04 13:46:30;;;;;;;;;;;;;;;;;;4993187;28;20275;-68
2021/10/04 13:48:55;;;;;;;;;;;;;;;;;;4994337;28;20262;-68
2021/10/04 13:51:20;;;;;;;;;;;;;;;;;;4993493;28;20283;-69
2021/10/04 13:53:50;;;;;;;;;;;;;;;;;;4974809;28;19979;-69
2021/10/04 13:56:15;;;;;;;;;;;;;;;;;;4994963;28;19917;-69
2021/10/04 13:58:40;;;;;;;;;;;;;;;;;;4987996;28;20255;-69
2021/10/04 14:01:09;;;;;;;;;;;;;;;;;;4974836;28;19918;-68
2021/10/04 14:03:34;;;;;;;;;;;;;;;;;;4993340;28;19922;-69
2021/10/04 14:06:00;;;;;;;;;;;;;;;;;;4992392;28;19960;-69
2021/10/04 14:08:25;;;;;;;;;;;;;;;;;;4998289;28;19922;-69
2021/10/04 14:10:50;;;;;;;;;;;;;;;;;;4990971;28;19932;-69
2021/10/04 14:13:15;;;;;;;;;;;;;;;;;;4978316;28;19957;-69
2021/10/04 14:15:41;;;;;;;;;;;;;;;;;;4998233;28;19918;-68
2021/10/04 14:18:06;;;;;;;;;;;;;;;;;;4978857;28;20147;-68
2021/10/04 14:20:31;;;;;;;;;;;;;;;;;;4994496;28;20370;-68
2021/10/04 14:22:56;;;;;;;;;;;;;;;;;;4990506;28;20063;-68
2021/10/04 14:25:22;;;;;;;;;;;;;;;;;;4994139;28;19957;-68
2021/10/04 14:27:48;;;;;;;;;;;;;;;;;;4982581;28;19917;-68
2021/10/04 14:30:13;;;;;;;;;;;;;;;;;;4992122;28;20350;-68
2021/10/04 14:32:39;;;;;;;;;;;;;;;;;;4983815;28;20314;-68
2021/10/04 14:35:04;;;;;;;;;;;;;;;;;;4978152;28;19914;-67
2021/10/04 14:37:30;;;;;;;;;;;;;;;;;;4989558;28;19941;-68
2021/10/04 14:39:55;;;;;;;;;;;;;;;;;;4979701;28;20312;-67
2021/10/04 14:42:21;;;;;;;;;;;;;;;;;;4989293;28;19922;-67
2021/10/04 14:44:46;;;;;;;;;;;;;;;;;;4992697;28;19922;-67
2021/10/04 14:47:12;;;;;;;;;;;;;;;;;;4975192;28;19945;-67
2021/10/04 14:49:37;;;;;;;;;;;;;;;;;;4990358;28;19918;-67
2021/10/04 14:52:02;;;;;;;;;;;;;;;;;;4968832;28;19925;-67
2021/10/04 14:54:28;;;;;;;;;;;;;;;;;;4996959;28;19952;-69
2021/10/04 14:56:53;;;;;;;;;;;;;;;;;;4994009;28;19918;-69
2021/10/04 14:59:18;;;;;;;;;;;;;;;;;;4991736;28;19922;-69
2021/10/04 15:01:43;;;;;;;;;;;;;;;;;;4988481;28;19922;-69
2021/10/04 15:04:11;;;;;;;;;;;;;;;;;;4983370;28;19928;-69
2021/10/04 15:06:36;;;;;;;;;;;;;;;;;;4994083;28;19975;-68
2021/10/04 15:09:02;;;;;;;;;;;;;;;;;;4994419;28;19925;-68
2021/10/04 15:11:27;;;;;;;;;;;;;;;;;;4984915;28;20287;-70
2021/10/04 15:13:52;;;;;;;;;;;;;;;;;;4990052;28;19922;-69
2021/10/04 15:16:18;;;;;;;;;;;;;;;;;;4984467;28;19918;-69
2021/10/04 15:18:43;;;;;;;;;;;;;;;;;;4985788;28;19999;-70
2021/10/04 15:21:09;;;;;;;;;;;;;;;;;;4986831;28;20032;-69
2021/10/04 15:23:34;;;;;;;;;;;;;;;;;;4985023;28;20047;-69
2021/10/04 15:26:00;;;;;;;;;;;;;;;;;;4998477;28;20426;-69
2021/10/04 15:28:26;;;;;;;;;;;;;;;;;;4994553;28;20324;-69
2021/10/04 15:30:51;;;;;;;;;;;;;;;;;;4986370;28;19924;-70
2021/10/04 15:33:16;;;;;;;;;;;;;;;;;;4968947;28;19918;-69
2021/10/04 15:35:41;;;;;;;;;;;;;;;;;;4993084;28;20532;-68
2021/10/04 15:38:07;;;;;;;;;;;;;;;;;;4993840;28;19957;-69
2021/10/04 15:40:33;;;;;;;;;;;;;;;;;;4997024;28;19917;-69
2021/10/04 15:42:58;;;;;;;;;;;;;;;;;;4991506;28;19913;-69
2021/10/04 15:45:26;;;;;;;;;;;;;;;;;;4997532;28;20010;-69
2021/10/04 15:47:51;;;;;;;;;;;;;;;;;;4995215;28;19965;-68
2021/10/04 15:50:16;;;;;;;;;;;;;;;;;;4978618;28;19918;-69
2021/10/04 15:52:42;;;;;;;;;;;;;;;;;;4999478;28;19917;-68
2021/10/04 15:55:07;;;;;;;;;;;;;;;;;;4981167;28;19917;-68
2021/10/04 15:57:33;;;;;;;;;;;;;;;;;;4988703;28;20257;-68
2021/10/04 15:59:58;;;;;;;;;;;;;;;;;;4992662;28;19925;-68
2021/10/04 16:02:23;;;;;;;;;;;;;;;;;;4992148;28;19922;-68
2021/10/04 16:04:50;;;;;;;;;;;;;;;;;;4987484;28;19917;-68
2021/10/04 16:07:19;;;;;;;;;;;;;;;;;;4993395;28;20418;-68
2021/10/04 16:09:44;;;;;;;;;;;;;;;;;;4980390;28;19917;-68
2021/10/04 16:12:11;;;;;;;;;;;;;;;;;;4999070;28;19917;-68
2021/10/04 16:14:36;;;;;;;;;;;;;;;;;;4992064;28;19922;-68
2021/10/04 16:17:01;;;;;;;;;;;;;;;;;;5002350;28;19921;-68
2021/10/04 16:19:26;;;;;;;;;;;;;;;;;;4990213;28;20050;-68
2021/10/04 16:21:52;;;;;;;;;;;;;;;;;;4991805;28;19929;-68
2021/10/04 16:24:17;;;;;;;;;;;;;;;;;;4997735;28;20331;-68
2021/10/04 16:26:42;;;;;;;;;;;;;;;;;;4989200;28;19917;-68
2021/10/04 16:29:08;;;;;;;;;;;;;;;;;;4964314;28;19917;-68
2021/10/04 16:31:33;;;;;;;;;;;;;;;;;;4979158;28;19956;-68
2021/10/04 16:33:58;;;;;;;;;;;;;;;;;;4973729;28;19917;-68
2021/10/04 16:36:25;;;;;;;;;;;;;;;;;;4998239;28;19917;-68